createdAt,value
2022-11-29T00:01:43.248Z,31.50
2022-11-29T00:04:12.178Z,37.07
2022-11-29T00:06:41.010Z,215.23
2022-11-29T00:09:13.754Z,129.67
2022-11-29T00:12:02.148Z,133.00
2022-11-29T00:14:30.917Z,66.17
2022-11-29T00:17:02.481Z,38.00
2022-11-29T00:19:31.532Z,36.67
2022-11-29T00:22:00.000Z,44.57
2022-11-29T00:24:28.568Z,25.57
2022-11-29T00:26:56.853Z,19.80
2022-11-29T00:29:25.150Z,27.83
2022-11-29T00:31:53.428Z,21.30
2022-11-29T00:34:23.068Z,22.60
2022-11-29T00:36:51.333Z,19.27
2022-11-29T00:39:19.841Z,19.83
2022-11-29T00:41:48.161Z,22.93
2022-11-29T00:44:20.183Z,21.37
2022-11-29T00:46:49.216Z,19.13
2022-11-29T00:49:17.814Z,17.80
2022-11-29T00:51:47.712Z,17.43
2022-11-29T00:54:16.138Z,19.67
2022-11-29T00:56:44.486Z,18.47
2022-11-29T00:59:12.733Z,16.33
2022-11-29T01:01:41.148Z,16.37
2022-11-29T01:04:10.765Z,18.97
2022-11-29T01:06:39.035Z,19.23
2022-11-29T01:09:08.678Z,17.53
2022-11-29T01:11:37.123Z,16.83
2022-11-29T01:14:05.995Z,18.60
2022-11-29T01:16:34.550Z,16.53
2022-11-29T01:19:03.327Z,18.73
2022-11-29T01:21:32.014Z,15.40
2022-11-29T01:24:01.774Z,17.97
2022-11-29T01:26:33.106Z,19.27
2022-11-29T01:29:01.555Z,19.27
2022-11-29T01:31:32.540Z,17.73
2022-11-29T01:34:03.486Z,17.20
2022-11-29T01:36:32.411Z,17.80
2022-11-29T01:39:01.004Z,17.63
2022-11-29T01:41:33.383Z,17.63
2022-11-29T01:44:05.502Z,17.63
2022-11-29T01:46:36.915Z,18.10
2022-11-29T01:49:11.384Z,18.53
2022-11-29T01:51:44.380Z,18.93
2022-11-29T01:54:14.089Z,20.70
2022-11-29T01:56:46.651Z,18.83
2022-11-29T01:59:20.807Z,18.53
2022-11-29T02:01:49.139Z,18.97
2022-11-29T02:04:18.701Z,18.30
2022-11-29T02:06:47.821Z,17.33
2022-11-29T02:09:21.781Z,18.60
2022-11-29T02:12:16.452Z,18.40
2022-11-29T02:15:14.475Z,21.33
2022-11-29T02:18:02.524Z,20.33
2022-11-29T02:21:04.872Z,19.93
2022-11-29T02:24:15.100Z,17.47
2022-11-29T02:27:41.608Z,17.97
2022-11-29T02:30:27.004Z,19.87
2022-11-29T02:33:41.256Z,20.20
2022-11-29T02:36:34.091Z,14.83
2022-11-29T02:39:39.448Z,18.43
2022-11-29T02:42:56.041Z,16.63
2022-11-29T02:45:51.793Z,17.87
2022-11-29T02:48:54.956Z,19.07
2022-11-29T02:51:32.365Z,17.57
2022-11-29T02:54:07.920Z,17.43
2022-11-29T02:56:44.499Z,19.67
2022-11-29T02:59:28.290Z,19.03
2022-11-29T03:02:14.656Z,20.47
2022-11-29T03:04:51.065Z,20.00
2022-11-29T03:07:29.553Z,17.43
2022-11-29T03:10:05.669Z,20.17
2022-11-29T03:12:42.149Z,19.17
2022-11-29T03:15:24.045Z,20.13
2022-11-29T03:18:04.154Z,18.87
2022-11-29T03:20:50.129Z,16.53
2022-11-29T03:23:25.934Z,17.73
2022-11-29T03:25:59.346Z,17.00
2022-11-29T03:28:32.771Z,16.77
2022-11-29T03:31:09.096Z,16.60
2022-11-29T03:33:49.485Z,18.63
2022-11-29T03:36:30.925Z,18.93
2022-11-29T03:39:06.361Z,16.67
2022-11-29T03:41:42.612Z,17.20
2022-11-29T03:44:17.386Z,18.17
2022-11-29T03:46:53.667Z,16.00
2022-11-29T03:49:27.882Z,17.27
2022-11-29T03:52:13.675Z,18.40
2022-11-29T03:54:56.746Z,17.67
2022-11-29T03:57:33.407Z,16.20
2022-11-29T04:00:07.175Z,16.77
2022-11-29T04:03:12.739Z,15.43
2022-11-29T04:06:05.418Z,16.07
2022-11-29T04:08:58.798Z,16.07
2022-11-29T04:12:22.523Z,17.63
2022-11-29T04:15:40.356Z,17.33
2022-11-29T04:18:53.234Z,17.87
2022-11-29T04:21:35.275Z,20.10
2022-11-29T04:25:07.852Z,17.53
2022-11-29T04:28:15.108Z,17.80
2022-11-29T04:30:55.269Z,16.93
2022-11-29T04:34:15.481Z,14.77
2022-11-29T04:37:19.838Z,19.23
2022-11-29T04:40:05.041Z,16.73
2022-11-29T04:43:11.120Z,19.57
2022-11-29T04:46:14.721Z,20.13
2022-11-29T04:49:04.909Z,19.63
2022-11-29T04:51:59.416Z,19.57
2022-11-29T04:54:36.040Z,17.30
2022-11-29T04:57:10.399Z,16.83
2022-11-29T04:59:45.817Z,17.57
2022-11-29T05:02:36.149Z,16.10
2022-11-29T05:05:21.545Z,18.87
2022-11-29T05:08:02.505Z,14.67
2022-11-29T05:10:42.471Z,18.77
2022-11-29T05:13:21.440Z,17.63
2022-11-29T05:16:13.288Z,16.03
2022-11-29T05:19:29.989Z,18.30
2022-11-29T05:22:16.008Z,18.47
2022-11-29T05:25:03.072Z,16.90
2022-11-29T05:27:45.594Z,15.23
2022-11-29T05:30:19.381Z,16.47
2022-11-29T05:32:57.914Z,17.83
2022-11-29T05:35:52.436Z,18.03
2022-11-29T05:39:01.749Z,17.43
2022-11-29T05:41:55.032Z,16.83
2022-11-29T05:44:33.590Z,16.17
2022-11-29T05:47:06.755Z,17.20
2022-11-29T05:49:43.387Z,19.40
2022-11-29T05:52:25.437Z,21.47
2022-11-29T05:55:20.753Z,21.57
2022-11-29T05:57:57.059Z,18.70
2022-11-29T06:00:26.683Z,22.10
2022-11-29T06:03:04.912Z,21.47
2022-11-29T06:05:39.693Z,21.93
2022-11-29T06:08:16.235Z,18.07
2022-11-29T06:10:57.689Z,20.00
2022-11-29T06:13:39.692Z,26.33
2022-11-29T06:16:31.500Z,21.43
2022-11-29T06:19:30.312Z,22.77
2022-11-29T06:22:26.466Z,25.00
2022-11-29T06:25:13.462Z,25.47
2022-11-29T06:27:57.584Z,23.70
2022-11-29T06:30:31.689Z,23.17
2022-11-29T06:33:07.476Z,24.00
2022-11-29T06:35:46.351Z,23.83
2022-11-29T06:38:22.803Z,26.10
2022-11-29T06:40:54.940Z,29.07
2022-11-29T06:43:27.815Z,25.03
2022-11-29T06:46:02.058Z,30.17
2022-11-29T06:48:36.643Z,26.87
2022-11-29T06:51:18.302Z,26.73
2022-11-29T06:53:56.827Z,30.07
2022-11-29T06:56:34.304Z,28.90
2022-11-29T06:59:12.035Z,25.50
2022-11-29T07:01:47.537Z,23.63
2022-11-29T07:04:45.441Z,25.13
2022-11-29T07:07:20.570Z,29.47
2022-11-29T07:09:50.968Z,29.30
2022-11-29T07:12:20.637Z,23.80
2022-11-29T07:14:49.766Z,24.20
2022-11-29T07:17:26.095Z,25.47
2022-11-29T07:20:03.813Z,34.60
2022-11-29T07:22:50.723Z,38.97
2022-11-29T07:25:31.257Z,35.13
2022-11-29T07:28:12.315Z,39.13
2022-11-29T07:30:51.525Z,34.60
2022-11-29T07:33:28.645Z,30.23
2022-11-29T07:36:07.060Z,33.67
2022-11-29T07:38:51.747Z,33.03
2022-11-29T07:41:29.058Z,40.50
2022-11-29T07:44:06.637Z,31.10
2022-11-29T07:46:34.941Z,36.77
2022-11-29T07:49:03.255Z,40.10
2022-11-29T07:51:33.046Z,40.67
2022-11-29T07:54:02.730Z,38.60
2022-11-29T07:56:30.971Z,35.27
2022-11-29T07:58:59.319Z,39.07
2022-11-29T08:01:27.651Z,36.20
2022-11-29T08:03:55.956Z,35.53
2022-11-29T08:06:27.715Z,31.67
2022-11-29T08:08:58.904Z,29.83
2022-11-29T08:11:29.141Z,33.07
2022-11-29T08:13:58.645Z,31.27
2022-11-29T08:16:27.215Z,32.73
2022-11-29T08:18:55.597Z,29.90
2022-11-29T08:21:24.105Z,33.60
2022-11-29T08:23:52.895Z,56.13
2022-11-29T08:26:25.616Z,44.17
2022-11-29T08:28:59.477Z,56.23
2022-11-29T08:31:27.883Z,28.57
2022-11-29T08:33:56.329Z,32.63
2022-11-29T08:36:24.586Z,37.03
2022-11-29T08:39:00.097Z,37.13
2022-11-29T08:41:31.538Z,28.40
2022-11-29T08:44:01.183Z,26.80
2022-11-29T08:46:43.366Z,25.77
2022-11-29T08:49:11.626Z,25.60
2022-11-29T08:51:40.006Z,31.10
2022-11-29T08:54:07.657Z,30.33
2022-11-29T08:59:27.623Z,32.63
2022-11-29T09:01:56.464Z,26.97
2022-11-29T09:04:24.851Z,24.50
2022-11-29T09:06:53.764Z,24.37
2022-11-29T09:09:22.100Z,27.17
2022-11-29T09:11:50.509Z,25.80
2022-11-29T09:14:19.948Z,26.30
2022-11-29T09:16:49.658Z,25.93
2022-11-29T09:19:18.121Z,39.27
2022-11-29T09:21:46.459Z,34.57
2022-11-29T09:24:14.889Z,28.53
2022-11-29T09:26:46.919Z,26.53
2022-11-29T09:29:16.895Z,27.80
2022-11-29T09:31:46.172Z,20.73
2022-11-29T09:34:16.411Z,28.27
2022-11-29T09:36:45.107Z,25.63
2022-11-29T09:39:13.412Z,29.60
2022-11-29T09:42:27.216Z,22.47
2022-11-29T09:45:04.589Z,21.93
2022-11-29T09:48:03.293Z,20.10
2022-11-29T09:50:36.056Z,18.73
2022-11-29T09:53:37.963Z,73.67
2022-11-29T09:56:19.191Z,24.70
2022-11-29T09:58:54.060Z,20.67
2022-11-29T10:01:28.388Z,24.87
2022-11-29T10:04:02.405Z,22.47
2022-11-29T10:06:38.837Z,21.90
2022-11-29T10:09:16.629Z,17.87
2022-11-29T10:11:58.422Z,16.23
2022-11-29T10:14:32.550Z,22.10
2022-11-29T10:17:08.256Z,23.53
2022-11-29T10:19:40.169Z,17.00
2022-11-29T10:22:21.130Z,16.33
2022-11-29T10:24:54.476Z,16.57
2022-11-29T10:27:25.049Z,17.00
2022-11-29T10:29:53.969Z,15.83
2022-11-29T10:32:24.708Z,13.87
2022-11-29T10:34:53.211Z,15.13
2022-11-29T10:37:24.915Z,21.47
2022-11-29T10:39:58.729Z,17.03
2022-11-29T10:42:46.992Z,20.60
2022-11-29T10:45:24.028Z,16.97
2022-11-29T10:47:55.554Z,15.17
2022-11-29T10:50:27.481Z,19.17
2022-11-29T10:53:02.198Z,20.50
2022-11-29T10:55:37.893Z,18.33
2022-11-29T10:58:15.935Z,19.87
2022-11-29T11:00:54.102Z,16.67
2022-11-29T11:03:39.401Z,15.20
2022-11-29T11:06:13.356Z,16.17
2022-11-29T11:08:47.531Z,16.87
2022-11-29T11:11:25.014Z,15.50
2022-11-29T11:14:01.518Z,14.73
2022-11-29T11:16:35.598Z,15.50
2022-11-29T11:19:28.933Z,15.63
2022-11-29T11:21:58.378Z,20.03
2022-11-29T11:24:31.637Z,14.53
2022-11-29T11:27:01.762Z,16.83
2022-11-29T11:29:37.438Z,34.13
2022-11-29T11:32:09.189Z,16.87
2022-11-29T11:34:39.447Z,22.00
2022-11-29T11:37:26.980Z,26.83
2022-11-29T11:39:58.808Z,18.97
2022-11-29T11:42:38.760Z,17.80
2022-11-29T11:45:32.649Z,18.00
2022-11-29T11:48:05.761Z,40.90
2022-11-29T11:50:38.947Z,28.90
2022-11-29T11:53:21.282Z,33.13
2022-11-29T11:56:00.093Z,30.60
2022-11-29T11:58:32.982Z,26.00
2022-11-29T12:01:16.177Z,40.13
2022-11-29T12:03:55.627Z,34.63
2022-11-29T12:06:41.014Z,38.07
2022-11-29T12:09:21.082Z,30.80
2022-11-29T12:12:01.557Z,23.07
2022-11-29T12:14:40.474Z,27.40
2022-11-29T12:17:20.372Z,18.93
2022-11-29T12:20:02.945Z,20.73
2022-11-29T12:22:43.941Z,23.13
2022-11-29T12:25:20.799Z,18.73
2022-11-29T12:27:51.888Z,16.93
2022-11-29T12:30:21.048Z,18.07
2022-11-29T12:33:17.854Z,21.73
2022-11-29T12:36:18.464Z,20.43
2022-11-29T12:39:04.807Z,23.50
2022-11-29T12:41:43.092Z,21.77
2022-11-29T12:44:30.838Z,26.57
2022-11-29T12:50:12.067Z,18.73
2022-11-29T12:52:48.601Z,17.03
2022-11-29T12:55:26.141Z,15.63
2022-11-29T12:58:11.115Z,17.40
2022-11-29T13:00:54.186Z,16.63
2022-11-29T13:03:31.862Z,15.03
2022-11-29T13:06:12.449Z,40.43
2022-11-29T13:09:04.827Z,27.67
2022-11-29T13:11:37.744Z,29.47
2022-11-29T13:14:41.616Z,19.47
2022-11-29T13:17:06.323Z,22.93
2022-11-29T13:19:41.640Z,27.53
2022-11-29T13:22:18.564Z,20.93
2022-11-29T13:24:51.453Z,20.90
2022-11-29T13:27:24.433Z,17.67
2022-11-29T13:29:52.804Z,17.77
2022-11-29T13:32:34.241Z,20.83
2022-11-29T13:35:08.461Z,20.63
2022-11-29T13:37:49.384Z,20.13
2022-11-29T13:40:32.548Z,18.83
2022-11-29T13:43:12.200Z,20.20
2022-11-29T13:45:46.095Z,18.17
2022-11-29T13:48:37.035Z,19.30
2022-11-29T13:51:29.562Z,19.43
2022-11-29T13:54:01.564Z,21.27
2022-11-29T13:56:36.676Z,18.13
2022-11-29T13:59:14.920Z,20.50
2022-11-29T14:01:48.975Z,20.00
2022-11-29T14:04:32.490Z,21.33
2022-11-29T14:07:09.122Z,21.63
2022-11-29T14:09:44.867Z,24.53
2022-11-29T14:12:38.310Z,29.10
2022-11-29T14:15:28.376Z,22.73
2022-11-29T14:17:58.710Z,24.47
2022-11-29T14:20:59.088Z,25.33
2022-11-29T14:23:42.368Z,22.33
2022-11-29T14:26:30.919Z,23.80
2022-11-29T14:29:00.332Z,43.63
2022-11-29T14:31:50.654Z,26.90
2022-11-29T14:34:35.550Z,21.63
2022-11-29T14:37:25.140Z,25.33
2022-11-29T14:39:56.241Z,25.83
2022-11-29T14:42:32.434Z,25.23
2022-11-29T14:45:04.806Z,27.13
2022-11-29T14:47:37.159Z,27.67
2022-11-29T14:50:10.398Z,30.97
2022-11-29T14:52:51.103Z,28.07
2022-11-29T14:55:34.163Z,26.93
2022-11-29T14:58:20.321Z,28.27
2022-11-29T15:01:10.935Z,31.27
2022-11-29T15:03:50.427Z,29.20
2022-11-29T15:06:27.411Z,28.27
2022-11-29T15:09:04.185Z,27.20
2022-11-29T15:11:44.499Z,28.27
2022-11-29T15:14:28.000Z,28.20
2022-11-29T15:17:18.727Z,30.90
2022-11-29T15:20:29.373Z,31.37
2022-11-29T15:23:00.966Z,32.23
2022-11-29T15:25:32.218Z,31.33
2022-11-29T15:28:02.840Z,31.17
2022-11-29T15:30:34.792Z,29.80
2022-11-29T15:33:06.660Z,28.83
2022-11-29T15:35:36.412Z,32.03
2022-11-29T15:38:05.316Z,32.53
2022-11-29T15:40:37.234Z,28.90
2022-11-29T15:43:17.115Z,47.93
2022-11-29T15:45:49.782Z,37.87
2022-11-29T15:48:23.495Z,76.20
2022-11-29T15:50:59.424Z,79.73
2022-11-29T15:53:33.568Z,43.83
2022-11-29T15:56:06.761Z,87.47
2022-11-29T15:58:35.750Z,42.77
2022-11-29T16:01:05.515Z,38.53
2022-11-29T16:03:37.151Z,33.73
2022-11-29T16:06:10.008Z,44.60
2022-11-29T16:08:42.881Z,47.83
2022-11-29T16:11:19.153Z,42.83
2022-11-29T16:14:16.688Z,45.27
2022-11-29T16:16:47.776Z,42.43
2022-11-29T16:19:34.402Z,43.33
2022-11-29T16:22:16.460Z,39.80
2022-11-29T16:25:05.183Z,41.03
2022-11-29T16:27:37.262Z,35.00
2022-11-29T16:30:07.164Z,51.90
2022-11-29T16:32:38.130Z,42.23
2022-11-29T16:35:12.478Z,37.43
2022-11-29T16:37:43.906Z,37.90
2022-11-29T16:40:23.653Z,34.73
2022-11-29T16:43:20.706Z,36.63
2022-11-29T16:45:49.050Z,35.90
2022-11-29T16:48:30.826Z,40.73
2022-11-29T16:51:26.135Z,36.87
2022-11-29T16:53:55.935Z,38.87
2022-11-29T16:56:27.289Z,37.00
2022-11-29T16:59:25.878Z,39.43
2022-11-29T17:01:51.724Z,33.03
2022-11-29T17:04:24.047Z,30.33
2022-11-29T17:06:58.484Z,39.53
2022-11-29T17:09:29.254Z,57.50
2022-11-29T17:11:59.950Z,41.57
2022-11-29T17:14:30.332Z,38.17
2022-11-29T17:17:01.143Z,57.00
2022-11-29T17:19:30.282Z,72.03
2022-11-29T17:21:58.867Z,54.87
2022-11-29T17:24:27.269Z,49.17
2022-11-29T17:26:55.551Z,42.43
2022-11-29T17:29:23.822Z,32.70
2022-11-29T17:31:53.557Z,31.57
2022-11-29T17:34:22.113Z,30.27
2022-11-29T17:36:50.932Z,30.37
2022-11-29T17:39:20.292Z,29.07
2022-11-29T17:41:48.754Z,30.10
2022-11-29T17:44:17.021Z,51.20
2022-11-29T17:46:45.275Z,33.23
2022-11-29T17:49:14.847Z,32.33
2022-11-29T17:51:52.237Z,29.60
2022-11-29T17:54:22.083Z,32.30
2022-11-29T17:56:50.744Z,27.53
2022-11-29T17:59:19.298Z,29.03
2022-11-29T18:01:48.107Z,25.77
2022-11-29T18:04:18.148Z,24.07
2022-11-29T18:06:50.152Z,23.30
2022-11-29T18:09:20.070Z,30.70
2022-11-29T18:11:50.698Z,25.30
2022-11-29T18:14:22.686Z,25.87
2022-11-29T18:16:51.326Z,27.73
2022-11-29T18:19:22.973Z,26.33
2022-11-29T18:21:51.487Z,22.83
2022-11-29T18:24:20.266Z,23.70
2022-11-29T18:26:49.069Z,22.53
2022-11-29T18:29:17.581Z,21.33
2022-11-29T18:31:47.484Z,24.47
2022-11-29T18:34:16.402Z,24.77
2022-11-29T18:36:48.035Z,23.50
2022-11-29T18:39:19.159Z,19.93
2022-11-29T18:41:49.563Z,28.07
2022-11-29T18:44:21.491Z,27.33
2022-11-29T18:46:49.924Z,26.97
2022-11-29T18:49:19.438Z,25.17
2022-11-29T18:51:50.351Z,40.93
2022-11-29T18:54:19.669Z,32.87
2022-11-29T18:56:50.884Z,25.87
2022-11-29T18:59:19.309Z,33.10
2022-11-29T19:01:51.647Z,32.60
2022-11-29T19:04:21.825Z,28.70
2022-11-29T19:06:51.481Z,30.50
2022-11-29T19:09:22.417Z,29.47
2022-11-29T19:11:50.951Z,30.80
2022-11-29T19:14:19.921Z,37.17
2022-11-29T19:16:50.668Z,28.93
2022-11-29T19:19:19.817Z,25.97
2022-11-29T19:21:48.810Z,29.00
2022-11-29T19:24:19.907Z,22.97
2022-11-29T19:26:50.277Z,29.00
2022-11-29T19:29:18.704Z,24.13
2022-11-29T19:31:47.124Z,27.57
2022-11-29T19:34:15.461Z,23.43
2022-11-29T19:36:45.017Z,16.07
2022-11-29T19:39:16.429Z,16.03
2022-11-29T19:41:48.050Z,13.97
2022-11-29T19:44:16.641Z,14.50
2022-11-29T19:46:48.603Z,13.37
2022-11-29T19:49:17.527Z,13.07
2022-11-29T19:51:45.834Z,12.57
2022-11-29T19:54:14.182Z,11.97
2022-11-29T19:56:42.733Z,13.20
2022-11-29T19:59:12.358Z,12.03
2022-11-29T20:01:42.284Z,10.47
2022-11-29T20:04:14.012Z,10.57
2022-11-29T20:06:42.718Z,11.87
2022-11-29T20:09:11.859Z,13.70
2022-11-29T20:11:40.345Z,15.70
2022-11-29T20:14:09.227Z,13.93
2022-11-29T20:16:39.578Z,11.77
2022-11-29T20:19:12.631Z,21.20
2022-11-29T20:21:44.672Z,15.23
2022-11-29T20:24:15.100Z,18.73
2022-11-29T20:26:46.128Z,26.97
2022-11-29T20:29:15.119Z,20.33
2022-11-29T20:31:50.696Z,24.13
2022-11-29T20:34:20.539Z,14.90
2022-11-29T20:37:20.027Z,14.77
2022-11-29T20:39:54.174Z,22.33
2022-11-29T20:42:59.579Z,16.10
2022-11-29T20:45:28.868Z,17.40
2022-11-29T20:48:03.922Z,16.40
2022-11-29T20:50:33.780Z,14.97
2022-11-29T20:53:17.144Z,10.13
2022-11-29T20:55:48.263Z,10.87
2022-11-29T20:58:18.282Z,12.23
2022-11-29T21:00:47.025Z,11.93
2022-11-29T21:03:18.622Z,12.00
2022-11-29T21:05:47.841Z,11.97
2022-11-29T21:08:17.875Z,7.97
2022-11-29T21:10:46.511Z,8.30
2022-11-29T21:13:16.168Z,8.67
2022-11-29T21:15:45.445Z,7.33
2022-11-29T21:18:26.198Z,8.03
2022-11-29T21:21:09.180Z,7.37
2022-11-29T21:23:53.739Z,5.97
2022-11-29T21:26:26.075Z,8.60
2022-11-29T21:29:13.075Z,7.43
2022-11-29T21:31:42.173Z,6.70
2022-11-29T21:34:14.575Z,5.97
2022-11-29T21:36:44.912Z,9.07
2022-11-29T21:39:16.805Z,9.00
2022-11-29T21:41:45.094Z,7.00
2022-11-29T21:44:13.331Z,7.67
2022-11-29T21:46:41.642Z,6.97
2022-11-29T21:49:11.363Z,7.83
2022-11-29T21:51:39.683Z,7.03
2022-11-29T21:54:07.935Z,6.50
2022-11-29T21:56:36.250Z,7.13
2022-11-29T21:59:05.051Z,5.33
2022-11-29T22:01:34.085Z,8.40
2022-11-29T22:04:02.565Z,8.37
2022-11-29T22:06:32.171Z,8.40
2022-11-29T22:09:00.755Z,6.27
2022-11-29T22:11:31.944Z,8.17
2022-11-29T22:14:15.155Z,7.60
2022-11-29T22:16:44.540Z,10.40
2022-11-29T22:19:14.751Z,8.30
2022-11-29T22:21:46.568Z,7.73
2022-11-29T22:24:16.852Z,8.23
2022-11-29T22:26:46.001Z,10.00
2022-11-29T22:29:14.922Z,8.40
2022-11-29T22:31:44.095Z,9.90
2022-11-29T22:34:12.844Z,11.43
2022-11-29T22:36:41.768Z,11.80
2022-11-29T22:39:11.593Z,11.13
2022-11-29T22:41:41.438Z,20.23
2022-11-29T22:44:10.478Z,12.67
2022-11-29T22:46:41.323Z,11.67
2022-11-29T22:49:10.592Z,29.20
2022-11-29T22:51:40.088Z,32.70
2022-11-29T22:54:11.579Z,17.67
2022-11-29T22:56:42.511Z,14.90
2022-11-29T22:59:11.073Z,10.40
2022-11-29T23:01:41.894Z,12.93
2022-11-29T23:04:12.511Z,13.77
2022-11-29T23:06:46.487Z,16.17
2022-11-29T23:09:21.191Z,11.43
2022-11-29T23:11:53.032Z,12.33
2022-11-29T23:14:23.103Z,13.80
2022-11-29T23:16:51.629Z,12.33
2022-11-29T23:19:20.714Z,13.30
2022-11-29T23:21:49.158Z,12.83
2022-11-29T23:24:18.848Z,15.53
2022-11-29T23:26:48.306Z,13.10
2022-11-29T23:29:19.212Z,11.50
2022-11-29T23:31:50.209Z,12.60
2022-11-29T23:34:18.711Z,13.07
2022-11-29T23:36:52.427Z,12.63
2022-11-29T23:39:22.675Z,12.23
2022-11-29T23:41:50.964Z,12.57
2022-11-29T23:44:19.229Z,14.17
2022-11-29T23:46:47.523Z,12.83
2022-11-29T23:49:15.831Z,12.30
2022-11-29T23:51:44.138Z,15.13
2022-11-29T23:54:12.366Z,12.40
2022-11-29T23:56:41.956Z,12.77
2022-11-29T23:59:10.246Z,13.00
